Date,TemperatureHighF,TemperatureAvgF,TemperatureLowF,DewpointHighF,DewpointAvgF,DewpointLowF,HumidityHigh,HumidityAvg,HumidityLow,PressureMaxIn,PressureMinIn,WindSpeedMaxMPH,WindSpeedAvgMPH,GustSpeedMaxMPH,PrecipitationSumIn
2014-1-2,29,27,24,27,23,-100,92,88,83,30.06,29.61,15,8,0,0.00
2014-1-3,23,11,0,21,4,-11,91,73,45,30.32,29.46,26,9,0,0.00
2014-1-4,28,14,-4,21,5,-12,87,68,37,30.43,30.19,7,1,0,0.00
2014-1-5,48,32,21,47,27,15,95,82,59,30.24,29.84,16,1,0,0.10
2014-1-6,57,45,29,57,27,-100,100,80,54,29.82,29.23,14,-57,0,0.20
2014-1-7,28,15,8,19,-4,-12,82,44,31,30.15,29.41,18,5,0,0.00
2014-1-8,23,14,7,4,-3,-11,59,47,35,30.38,30.15,7,2,0,0.00
2014-1-9,28,19,13,9,5,2,81,57,35,30.55,30.33,12,2,0,0.00
2014-1-10,40,28,12,39,26,8,96,89,81,30.51,30.17,2,0,0,0.12
2014-1-11,59,51,40,59,22,-100,100,78,55,30.16,29.24,28,8,0,1.01
2014-1-12,51,42,35,51,11,-100,100,55,2,29.87,29.23,22,-16,0,0.18
2014-1-13,50,35,28,43,10,-100,83,57,43,30.05,29.84,13,-72,0,0.00
2014-1-14,52,33,44,49,-2,-100,95,60,73,29.83,29.49,9,-307,0,0.88
2014-1-15,48,40,33,42,36,32,95,86,61,29.94,29.65,11,1,0,0.00
2014-1-16,40,38,35,40,25,-100,100,88,58,29.83,29.73,5,0,0,0.00
2014-1-17,45,37,31,40,28,-100,100,79,33,29.89,29.82,11,1,0,0.00
2014-1-18,40,36,33,38,34,29,95,92,86,29.82,29.49,7,1,0,0.44
2014-1-19,36,31,29,32,16,-100,97,71,55,29.62,29.48,14,-39,0,0.00
2014-1-20,44,23,32,25,-29,-100,65,34,45,29.73,29.41,17,-366,0,0.00
2014-1-21,19,6,15,9,-61,-100,78,22,48,29.94,29.74,157,-580,0,0.00
2014-1-27,49,28,22,40,-13,-100,84,42,31,29.87,29.46,21,-307,0,0.00
2014-1-28,22,17,13,-1,-10,-17,40,30,20,30.20,29.87,14,4,0,0.00
2014-1-29,24,18,14,11,3,-7,82,55,34,30.12,29.89,7,1,0,0.00
2014-1-30,28,18,10,10,2,-6,82,52,32,30.34,30.11,7,1,0,0.00
2014-1-31,41,32,14,26,18,10,87,60,31,30.10,29.93,6,1,0,0.00
2014-2-1,43,35,32,29,17,-100,83,54,38,30.25,29.96,8,-20,0,0.00
2014-2-2,54,28,34,47,-7,-100,95,56,55,29.95,29.77,5,-322,0,0.00
2014-2-3,34,17,28,31,-33,-100,93,48,83,30.17,29.95,4,-437,0,0.05
2014-2-4,34,24,20,26,7,-100,92,73,65,30.35,30.16,2,-104,0,13.90
2014-2-5,34,28,26,32,18,-100,94,84,89,30.21,29.49,17,-38,0,0.05
2014-2-6,29,17,19,25,-20,-100,90,52,60,30.14,29.79,8,-289,0,0.01
2014-2-12,22,4,21,13,-77,-100,69,14,66,30.39,30.30,0,-792,0,0.00
2014-2-13,40,24,34,39,-17,-100,95,57,91,30.27,28.84,20,-359,0,1.05
2014-2-14,39,35,30,39,8,-100,100,60,44,29.64,28.69,20,4,0,0.11
2014-2-15,36,28,26,31,10,-100,97,71,58,29.75,29.27,19,-88,0,0.00
2014-2-18,36,31,27,36,13,-100,100,78,49,30.12,29.74,10,4,0,0.01
2014-2-19,40,28,20,37,14,-100,95,75,49,30.01,29.57,7,-72,0,0.37
2014-2-20,50,36,32,35,3,-100,100,50,27,30.13,29.73,10,-82,0,0.05
2014-2-21,55,29,37,55,-17,-100,100,55,49,30.05,29.60,20,-327,0,0.22
2014-2-22,52,42,33,43,28,-100,100,66,27,29.89,29.75,12,2,0,0.01
2014-2-23,46,40,35,34,29,26,84,66,49,29.91,29.88,10,1,0,0.00
2014-2-28,26,18,10,2,-9,-16,68,32,16,30.34,30.12,8,2,0,0.00
2014-3-1,35,24,7,27,14,1,80,67,43,30.34,30.01,12,3,0,0.00
2014-3-2,36,34,31,25,22,20,76,64,57,30.01,29.85,6,1,0,0.00
2014-3-3,32,24,19,23,10,-1,80,58,38,30.02,29.86,12,6,0,0.00
2014-3-7,36,32,16,28,23,11,85,72,55,30.29,29.82,7,2,0,0.00
2014-3-8,55,39,28,32,25,19,92,63,25,29.82,29.57,8,2,0,0.00
2014-3-9,41,34,27,25,12,5,65,43,24,29.83,29.74,12,4,0,0.00
2014-3-10,42,34,28,31,25,11,91,73,44,29.80,29.56,8,1,0,0.04
2014-3-11,59,44,34,38,32,24,92,67,27,29.57,29.41,13,3,0,0.00
2014-3-17,26,22,16,13,9,1,78,58,47,30.06,29.94,14,4,0,0.00
2014-3-18,34,25,15,18,14,8,83,64,45,30.25,30.05,11,2,0,0.00
2014-3-19,44,32,20,32,22,17,87,68,47,30.27,29.86,11,3,0,0.00
2014-3-20,52,46,36,46,33,-100,100,70,40,29.89,29.51,17,5,0,0.47
2014-3-21,44,38,31,29,21,17,68,50,36,29.93,29.65,19,5,0,0.00
2014-3-22,58,41,25,39,24,18,78,54,29,29.95,29.55,26,5,0,0.00
2014-3-23,44,36,28,25,15,2,77,46,21,29.92,29.77,17,3,0,0.00
2014-3-24,32,24,17,7,-3,-7,57,32,19,30.05,29.92,18,5,0,0.00
2014-3-25,36,27,15,13,8,0,72,47,24,30.05,29.78,13,2,0,0.00
2014-3-26,34,29,25,24,12,-4,89,52,25,29.86,29.41,31,13,0,0.01
2014-3-27,43,30,20,22,4,-6,63,35,19,30.21,29.87,17,6,0,0.00
2014-3-28,55,46,35,46,38,23,92,75,62,30.18,29.88,21,5,0,0.04
2014-3-29,52,44,38,47,32,-100,100,83,65,30.13,29.86,13,3,0,0.70
2014-3-30,56,44,36,57,26,-100,100,86,58,29.85,29.48,22,7,0,1.17
2014-3-31,39,35,34,35,10,-100,100,72,69,29.85,29.57,28,10,0,0.00
2014-4-1,45,39,36,31,26,24,81,61,45,30.00,29.85,19,6,0,0.00
2014-4-2,54,42,29,35,27,20,91,61,28,30.02,29.92,7,2,0,0.00
2014-4-3,52,41,32,37,26,-100,95,64,24,30.02,29.94,14,-9,0,0.00
2014-4-4,47,40,34,35,30,25,89,67,49,30.05,29.76,11,4,0,0.00
2014-4-5,53,44,38,47,22,-100,100,64,42,29.84,29.55,16,4,0,0.00
2014-4-6,58,42,31,31,20,-100,76,48,20,30.10,29.84,10,-8,0,0.00
2014-4-7,57,45,33,46,27,-100,92,57,23,30.14,29.82,13,-7,0,0.00
2014-4-8,56,48,48,56,19,-100,100,74,41,29.80,29.27,14,-70,0,0.02
2014-4-9,59,43,42,35,12,-100,70,42,23,29.84,29.41,13,-116,0,0.00
2014-4-10,53,34,29,36,-5,-100,73,35,24,30.07,29.86,14,-194,0,0.00
2014-4-11,64,40,48,44,-3,-100,78,43,46,29.95,29.84,12,-253,0,0.00
2014-4-12,69,42,47,46,-8,-100,89,28,20,30.14,29.86,12,-271,0,0.00
2014-4-13,63,53,43,51,41,26,86,66,26,30.17,29.97,19,5,0,0.00
2014-4-14,70,61,55,55,52,50,87,75,55,29.98,29.87,26,8,0,0.00
2014-4-15,66,60,56,57,55,52,94,84,69,29.87,29.55,28,12,0,0.08
2014-4-16,41,39,36,16,16,15,44,40,35,30.46,30.34,5,4,0,0.05
2014-4-17,37,36,34,25,21,16,61,55,47,30.68,30.50,13,8,0,0.00
2014-4-18,41,31,37,33,5,-100,83,59,67,30.47,30.24,11,4,0,0.00
2014-4-19,57,47,37,34,32,29,91,62,35,30.16,30.10,10,4,0,0.00
2014-4-20,49,32,46,29,-16,-100,46,29,41,30.42,30.29,10,-327,0,0.00
2014-4-21,61,41,61,37,-9,-100,41,27,41,30.15,29.88,7,-329,0,0.00
2014-4-22,63,44,54,45,-28,-100,62,27,47,29.71,29.44,8,5,0,0.00
2014-4-23,50,50,49,49,43,34,100,80,56,29.43,29.33,12,5,0,0.88
2014-4-24,54,49,43,22,20,17,34,31,28,29.57,29.55,11,9,0,0.00
2014-4-25,55,49,44,31,29,27,52,46,36,29.90,29.77,7,5,0,0.00
2014-4-26,45,44,44,39,37,36,79,77,74,29.76,29.70,3,2,0,0.00
2014-4-27,46,45,43,41,40,39,86,82,74,29.93,29.85,2,1,0,0.03
2014-4-28,50,30,39,35,-10,-100,85,46,54,30.09,29.89,8,-329,0,0.01
2014-4-29,-200,0,200,-100,-100,-100,0,0,100,30.18,30.18,0,-999,0,0.00
2014-4-30,42,28,42,38,-8,-100,86,57,86,30.41,30.40,7,-330,0,0.00
2014-5-1,61,60,58,61,59,58,100,100,100,29.77,29.64,4,2,0,0.00
2014-5-2,59,56,53,54,44,39,100,67,49,29.66,29.59,0,0,0,0.01
2014-5-3,67,44,45,40,11,-100,82,46,34,29.72,29.67,5,1,0,0.00
2014-5-4,53,53,53,45,45,45,75,75,75,29.57,29.57,1,1,0,0.00
2014-5-5,62,55,50,40,38,36,68,55,40,29.75,29.52,6,2,0,0.00
2014-5-6,59,59,59,30,30,30,34,34,34,29.79,29.78,3,2,0,0.00
2014-5-7,45,30,45,37,-9,-100,72,48,72,30.01,29.93,0,-333,0,0.00
2014-5-11,77,70,62,50,39,32,65,36,23,29.87,29.84,0,0,0,0.06
2014-5-12,79,73,55,52,41,37,65,36,22,29.99,29.92,11,5,0,0.00
2014-5-13,52,51,49,45,43,41,79,74,68,30.18,30.00,12,8,0,0.00
2014-5-14,62,56,46,42,41,40,84,61,45,30.23,30.22,7,4,0,0.00
2014-5-15,72,66,60,60,59,57,88,77,66,30.20,30.14,17,5,0,0.00
2014-5-16,70,66,62,60,59,58,88,77,66,30.07,29.97,11,8,0,0.00
2014-5-17,65,62,58,62,55,45,100,80,61,29.94,29.80,13,5,0,0.74
2014-5-18,62,55,51,47,45,39,80,70,44,29.97,29.93,8,1,0,0.00
2014-5-19,62,52,49,43,37,34,64,56,36,29.98,29.93,5,1,0,0.00
2014-5-20,66,58,50,47,46,46,88,68,49,29.90,29.86,2,1,0,0.00
2014-5-21,65,56,46,51,48,44,91,78,56,29.87,29.86,5,2,0,0.00
2014-5-22,64,58,51,53,52,51,100,82,64,29.81,29.78,5,3,0,0.00
2014-5-23,61,55,53,53,52,48,100,90,76,29.87,29.78,3,1,0,0.00
2014-5-24,61,53,51,50,48,46,90,83,59,29.97,29.90,4,0,0,0.00
2014-5-25,54,51,50,53,35,-100,100,85,38,29.97,29.93,2,0,0,0.00
2014-5-26,74,63,54,57,32,-100,100,62,44,29.93,29.72,2,1,0,0.00
2014-5-27,59,54,50,55,52,50,100,91,86,29.83,29.73,7,2,0,0.00
2014-5-28,49,47,46,49,44,42,100,88,83,30.10,29.91,6,3,0,0.01
2014-5-29,58,45,40,47,36,-100,100,82,39,30.14,30.07,10,1,0,0.00
2014-5-30,66,61,57,45,43,42,59,53,47,29.94,29.92,5,3,0,0.00
2014-5-31,56,54,53,53,49,44,100,84,64,30.11,30.00,12,8,0,0.00
2014-6-1,69,59,48,45,41,37,89,58,31,30.23,30.16,10,3,0,0.00
2014-6-2,79,61,53,49,47,43,85,67,28,30.14,29.95,3,1,0,0.00
2014-6-3,75,66,54,55,53,51,90,66,51,29.89,29.84,6,3,0,0.00
2014-6-4,56,19,56,50,-50,-100,81,27,81,29.76,29.70,0,-666,0,0.00
2014-6-5,59,20,59,59,-47,-100,100,33,100,29.62,29.53,7,-329,0,0.00
2014-6-6,67,62,54,56,24,-100,100,63,65,29.75,29.61,3,1,0,0.00
2014-6-7,79,66,57,52,52,51,82,64,38,29.81,29.78,3,1,0,0.00
2014-6-8,81,54,59,58,16,-100,90,46,35,29.84,29.79,6,-249,0,0.00
2014-6-9,76,76,76,54,54,54,46,46,46,29.87,29.87,6,6,0,0.00
2014-6-10,75,67,64,66,61,58,85,81,75,29.88,29.85,5,1,0,0.10
2014-6-11,65,58,56,55,52,51,88,81,69,30.08,29.99,3,1,0,0.00
2014-6-12,65,59,56,56,53,50,85,80,72,30.06,29.97,13,2,0,0.00
2014-6-13,68,62,60,68,53,-100,100,86,81,29.97,29.69,10,4,0,0.42
2014-7-4,69,63,62,66,60,59,92,91,89,29.82,29.64,22,12,0,3.82
2014-7-5,74,61,57,61,56,40,92,87,29,29.91,29.65,17,5,0,0.33
2014-7-6,80,71,64,59,54,50,76,56,44,29.93,29.81,7,2,0,0.00
2014-7-7,80,71,65,66,63,59,88,76,59,29.83,29.66,12,3,0,0.00
2014-7-8,88,73,70,69,65,64,81,77,47,29.70,29.67,7,2,0,0.00
2014-7-9,83,78,71,67,63,59,83,63,45,29.79,29.61,12,6,0,0.00
2014-7-10,80,74,66,64,59,56,83,64,44,30.05,29.93,0,0,0,0.07
2014-7-11,76,71,64,60,58,57,85,66,52,30.13,30.10,6,3,0,0.00
2014-7-12,81,66,60,62,61,57,90,83,54,30.12,30.06,6,2,0,0.00
2014-7-13,81,68,65,67,62,57,92,83,47,30.06,29.87,21,2,0,0.00
2014-7-31,77,74,71,62,60,58,74,62,52,30.01,30.01,7,3,0,0.00
2014-8-1,73,69,65,66,64,62,90,84,79,30.14,30.08,0,0,0,0.00
2014-8-2,68,66,63,64,61,58,86,86,86,30.13,30.12,0,0,0,0.00
2014-8-3,66,66,66,63,63,63,90,90,90,29.96,29.96,0,0,0,0.00
2014-8-4,79,71,65,66,65,63,94,82,62,29.94,29.93,1,0,0,0.00
2014-8-8,75,75,75,56,56,56,52,52,52,29.90,29.90,5,5,0,0.00
2014-8-9,77,74,71,58,58,57,65,58,50,29.98,29.97,11,5,0,0.00
2014-8-10,74,70,65,60,58,56,83,68,53,30.02,30.01,1,0,0,0.00
2014-8-11,80,75,65,60,55,53,85,52,40,30.06,30.03,7,3,0,0.00
2014-8-12,77,70,63,63,62,60,92,77,58,30.04,29.95,16,3,0,0.00
2014-8-13,71,69,66,69,66,63,93,91,83,29.73,29.52,12,4,0,0.52
2014-8-14,76,67,57,64,55,48,93,69,39,29.78,29.57,10,2,0,0.01
2014-8-15,75,65,56,63,54,49,92,70,40,29.85,29.74,8,1,0,0.00
2014-8-16,76,66,55,59,54,51,87,67,43,29.90,29.83,12,1,0,0.00
2014-8-17,79,69,63,66,60,54,91,75,47,29.83,29.67,11,1,0,0.08
2014-8-18,76,65,56,57,54,52,89,70,48,29.79,29.69,11,1,0,0.00
2014-8-19,75,64,52,56,53,49,89,70,40,29.87,29.77,7,1,0,0.00
2014-8-20,76,64,56,64,55,48,93,75,39,29.93,29.86,10,2,0,0.00
2014-9-17,65,57,50,50,49,47,87,76,57,29.89,29.86,3,0,0,0.00
2014-9-18,72,57,44,57,44,42,92,65,37,30.02,29.84,8,1,0,0.00
2014-9-19,59,52,40,45,38,35,86,60,47,30.35,30.03,12,4,0,0.00
2014-9-20,67,55,38,56,47,35,90,76,59,30.32,30.02,11,2,0,0.00
2014-9-21,77,70,60,69,65,56,94,85,74,30.02,29.46,14,2,0,0.10
2014-9-22,74,65,52,67,49,38,100,62,38,29.99,29.45,11,2,0,0.00
2014-9-23,68,55,42,47,42,38,87,64,38,30.33,30.00,9,1,0,0.00
2014-9-24,67,53,47,54,46,45,91,73,53,30.52,30.34,13,2,0,0.00
2014-9-25,60,56,51,57,52,48,92,85,76,30.45,30.13,11,2,0,0.18
2014-9-26,68,59,52,57,51,43,93,75,42,30.12,30.05,12,3,0,0.06
2014-9-27,80,62,49,58,50,46,92,67,41,30.09,30.03,8,1,0,0.00
2014-9-28,84,66,54,63,56,52,94,73,38,30.07,29.90,7,1,0,0.00
2014-9-29,74,63,58,64,58,56,94,85,67,29.91,29.83,7,1,0,0.01